sensor_id;sensor_type;location;lat;lon;timestamp;P1;durP1;ratioP1;P2;durP2;ratioP2
20073;SDS011;10197;54.282;10.078;2023-04-03T00:00:06;10.25;;;5.85;;
20073;SDS011;10197;54.282;10.078;2023-04-03T00:02:35;12.23;;;6.05;;
20073;SDS011;10197;54.282;10.078;2023-04-03T00:05:03;8.15;;;5.70;;
20073;SDS011;10197;54.282;10.078;2023-04-03T00:07:31;9.30;;;5.93;;
20073;SDS011;10197;54.282;10.078;2023-04-03T00:09:58;11.18;;;5.60;;
20073;SDS011;10197;54.282;10.078;2023-04-03T00:12:25;11.48;;;5.60;;
20073;SDS011;10197;54.282;10.078;2023-04-03T00:14:52;9.45;;;5.53;;
20073;SDS011;10197;54.282;10.078;2023-04-03T00:17:19;7.53;;;5.13;;
20073;SDS011;10197;54.282;10.078;2023-04-03T00:19:46;10.82;;;5.47;;
20073;SDS011;10197;54.282;10.078;2023-04-03T00:22:14;10.23;;;4.80;;
20073;SDS011;10197;54.282;10.078;2023-04-03T00:24:41;9.38;;;5.45;;
20073;SDS011;10197;54.282;10.078;2023-04-03T00:27:07;10.77;;;5.07;;
20073;SDS011;10197;54.282;10.078;2023-04-03T00:29:34;8.15;;;5.18;;
20073;SDS011;10197;54.282;10.078;2023-04-03T00:32:02;9.60;;;5.28;;
20073;SDS011;10197;54.282;10.078;2023-04-03T00:34:28;10.32;;;5.25;;
20073;SDS011;10197;54.282;10.078;2023-04-03T00:36:55;7.85;;;4.82;;
20073;SDS011;10197;54.282;10.078;2023-04-03T00:39:25;9.65;;;5.32;;
20073;SDS011;10197;54.282;10.078;2023-04-03T00:41:52;7.97;;;5.13;;
20073;SDS011;10197;54.282;10.078;2023-04-03T00:44:20;8.93;;;5.18;;
20073;SDS011;10197;54.282;10.078;2023-04-03T00:46:48;8.23;;;5.07;;
20073;SDS011;10197;54.282;10.078;2023-04-03T00:49:15;6.05;;;4.88;;
20073;SDS011;10197;54.282;10.078;2023-04-03T00:51:42;7.05;;;4.85;;
20073;SDS011;10197;54.282;10.078;2023-04-03T00:54:09;9.50;;;4.93;;
20073;SDS011;10197;54.282;10.078;2023-04-03T00:56:38;9.63;;;5.25;;
20073;SDS011;10197;54.282;10.078;2023-04-03T00:59:06;7.78;;;5.03;;
20073;SDS011;10197;54.282;10.078;2023-04-03T01:01:35;9.13;;;5.13;;
20073;SDS011;10197;54.282;10.078;2023-04-03T01:04:02;7.30;;;5.07;;
20073;SDS011;10197;54.282;10.078;2023-04-03T01:06:32;8.10;;;4.90;;
20073;SDS011;10197;54.282;10.078;2023-04-03T01:09:05;7.05;;;4.90;;
20073;SDS011;10197;54.282;10.078;2023-04-03T01:11:32;7.40;;;5.13;;
20073;SDS011;10197;54.282;10.078;2023-04-03T01:14:01;9.80;;;5.15;;
20073;SDS011;10197;54.282;10.078;2023-04-03T01:16:31;7.45;;;4.93;;
20073;SDS011;10197;54.282;10.078;2023-04-03T01:18:58;9.73;;;4.72;;
20073;SDS011;10197;54.282;10.078;2023-04-03T01:24:27;6.60;;;4.57;;
20073;SDS011;10197;54.282;10.078;2023-04-03T01:27:01;8.13;;;4.25;;
20073;SDS011;10197;54.282;10.078;2023-04-03T01:29:31;6.65;;;4.28;;
20073;SDS011;10197;54.282;10.078;2023-04-03T01:32:00;9.18;;;4.80;;
20073;SDS011;10197;54.282;10.078;2023-04-03T01:34:29;7.78;;;4.57;;
20073;SDS011;10197;54.282;10.078;2023-04-03T01:36:57;5.82;;;4.35;;
20073;SDS011;10197;54.282;10.078;2023-04-03T01:39:24;11.25;;;4.80;;
20073;SDS011;10197;54.282;10.078;2023-04-03T01:41:51;6.50;;;4.85;;
20073;SDS011;10197;54.282;10.078;2023-04-03T01:44:25;6.22;;;4.50;;
20073;SDS011;10197;54.282;10.078;2023-04-03T01:47:04;5.93;;;4.15;;
20073;SDS011;10197;54.282;10.078;2023-04-03T01:49:32;7.15;;;4.47;;
20073;SDS011;10197;54.282;10.078;2023-04-03T01:51:59;6.00;;;4.40;;
20073;SDS011;10197;54.282;10.078;2023-04-03T01:54:26;6.95;;;4.72;;
20073;SDS011;10197;54.282;10.078;2023-04-03T01:56:53;6.95;;;4.57;;
20073;SDS011;10197;54.282;10.078;2023-04-03T01:59:21;6.88;;;4.40;;
20073;SDS011;10197;54.282;10.078;2023-04-03T02:01:48;6.10;;;4.22;;
20073;SDS011;10197;54.282;10.078;2023-04-03T02:04:17;4.43;;;3.97;;
20073;SDS011;10197;54.282;10.078;2023-04-03T02:06:44;5.97;;;4.47;;
20073;SDS011;10197;54.282;10.078;2023-04-03T02:09:11;6.05;;;4.05;;
20073;SDS011;10197;54.282;10.078;2023-04-03T02:11:37;8.50;;;4.40;;
20073;SDS011;10197;54.282;10.078;2023-04-03T02:14:05;5.65;;;3.85;;
20073;SDS011;10197;54.282;10.078;2023-04-03T02:16:32;6.88;;;4.38;;
20073;SDS011;10197;54.282;10.078;2023-04-03T02:18:58;6.68;;;4.05;;
20073;SDS011;10197;54.282;10.078;2023-04-03T02:21:30;6.05;;;4.22;;
20073;SDS011;10197;54.282;10.078;2023-04-03T02:23:57;6.82;;;3.97;;
20073;SDS011;10197;54.282;10.078;2023-04-03T02:26:24;7.07;;;4.95;;
20073;SDS011;10197;54.282;10.078;2023-04-03T02:28:51;7.50;;;4.00;;
20073;SDS011;10197;54.282;10.078;2023-04-03T02:31:18;5.82;;;4.03;;
20073;SDS011;10197;54.282;10.078;2023-04-03T02:33:46;5.70;;;3.90;;
20073;SDS011;10197;54.282;10.078;2023-04-03T02:36:14;4.82;;;3.83;;
20073;SDS011;10197;54.282;10.078;2023-04-03T02:38:47;6.60;;;4.32;;
20073;SDS011;10197;54.282;10.078;2023-04-03T02:41:13;6.38;;;3.78;;
20073;SDS011;10197;54.282;10.078;2023-04-03T02:43:41;4.85;;;3.85;;
20073;SDS011;10197;54.282;10.078;2023-04-03T02:46:08;6.60;;;4.28;;
20073;SDS011;10197;54.282;10.078;2023-04-03T02:48:35;6.22;;;4.03;;
20073;SDS011;10197;54.282;10.078;2023-04-03T02:51:03;5.68;;;3.83;;
20073;SDS011;10197;54.282;10.078;2023-04-03T02:53:30;5.85;;;4.35;;
20073;SDS011;10197;54.282;10.078;2023-04-03T02:56:03;4.95;;;3.92;;
20073;SDS011;10197;54.282;10.078;2023-04-03T02:58:30;5.10;;;4.15;;
20073;SDS011;10197;54.282;10.078;2023-04-03T03:00:59;5.90;;;4.25;;
20073;SDS011;10197;54.282;10.078;2023-04-03T03:03:25;6.13;;;4.10;;
20073;SDS011;10197;54.282;10.078;2023-04-03T03:06:00;6.07;;;4.13;;
20073;SDS011;10197;54.282;10.078;2023-04-03T03:08:28;6.20;;;4.00;;
20073;SDS011;10197;54.282;10.078;2023-04-03T03:10:55;5.40;;;3.92;;
20073;SDS011;10197;54.282;10.078;2023-04-03T03:13:23;5.25;;;4.10;;
20073;SDS011;10197;54.282;10.078;2023-04-03T03:15:50;6.05;;;4.13;;
20073;SDS011;10197;54.282;10.078;2023-04-03T03:18:17;5.88;;;4.30;;
20073;SDS011;10197;54.282;10.078;2023-04-03T03:20:44;6.60;;;4.25;;
20073;SDS011;10197;54.282;10.078;2023-04-03T03:23:12;5.28;;;4.20;;
20073;SDS011;10197;54.282;10.078;2023-04-03T03:25:39;7.45;;;4.50;;
20073;SDS011;10197;54.282;10.078;2023-04-03T03:28:07;5.88;;;4.20;;
20073;SDS011;10197;54.282;10.078;2023-04-03T03:30:35;4.45;;;3.80;;
20073;SDS011;10197;54.282;10.078;2023-04-03T03:33:02;6.97;;;4.13;;
20073;SDS011;10197;54.282;10.078;2023-04-03T03:35:29;5.95;;;4.25;;
20073;SDS011;10197;54.282;10.078;2023-04-03T03:37:56;6.70;;;4.35;;
20073;SDS011;10197;54.282;10.078;2023-04-03T03:40:23;6.68;;;4.22;;
20073;SDS011;10197;54.282;10.078;2023-04-03T03:42:50;6.05;;;3.88;;
20073;SDS011;10197;54.282;10.078;2023-04-03T03:45:16;5.80;;;4.22;;
20073;SDS011;10197;54.282;10.078;2023-04-03T03:47:45;5.55;;;3.80;;
20073;SDS011;10197;54.282;10.078;2023-04-03T03:50:12;5.47;;;4.00;;
20073;SDS011;10197;54.282;10.078;2023-04-03T03:52:39;5.57;;;3.72;;
20073;SDS011;10197;54.282;10.078;2023-04-03T03:55:06;6.28;;;4.10;;
20073;SDS011;10197;54.282;10.078;2023-04-03T03:57:36;5.68;;;3.83;;
20073;SDS011;10197;54.282;10.078;2023-04-03T04:00:04;8.85;;;4.47;;
20073;SDS011;10197;54.282;10.078;2023-04-03T04:02:40;10.05;;;4.65;;
20073;SDS011;10197;54.282;10.078;2023-04-03T04:05:13;6.40;;;3.90;;
20073;SDS011;10197;54.282;10.078;2023-04-03T04:07:40;4.70;;;3.85;;
20073;SDS011;10197;54.282;10.078;2023-04-03T04:10:07;6.70;;;4.13;;
20073;SDS011;10197;54.282;10.078;2023-04-03T04:12:36;5.80;;;3.97;;
20073;SDS011;10197;54.282;10.078;2023-04-03T04:15:03;7.53;;;4.22;;
20073;SDS011;10197;54.282;10.078;2023-04-03T04:17:31;7.57;;;4.18;;
20073;SDS011;10197;54.282;10.078;2023-04-03T04:19:58;7.65;;;4.20;;
20073;SDS011;10197;54.282;10.078;2023-04-03T04:22:27;8.13;;;4.10;;
20073;SDS011;10197;54.282;10.078;2023-04-03T04:24:54;5.47;;;3.90;;
20073;SDS011;10197;54.282;10.078;2023-04-03T04:27:20;5.72;;;3.63;;
20073;SDS011;10197;54.282;10.078;2023-04-03T04:29:47;4.50;;;3.83;;
20073;SDS011;10197;54.282;10.078;2023-04-03T04:32:16;5.88;;;4.20;;
20073;SDS011;10197;54.282;10.078;2023-04-03T04:34:44;7.15;;;4.72;;
20073;SDS011;10197;54.282;10.078;2023-04-03T04:37:11;5.35;;;4.30;;
20073;SDS011;10197;54.282;10.078;2023-04-03T04:39:39;5.72;;;3.90;;
20073;SDS011;10197;54.282;10.078;2023-04-03T04:42:06;4.45;;;3.55;;
20073;SDS011;10197;54.282;10.078;2023-04-03T04:44:39;4.85;;;4.00;;
20073;SDS011;10197;54.282;10.078;2023-04-03T04:47:07;6.28;;;4.25;;
20073;SDS011;10197;54.282;10.078;2023-04-03T04:49:34;6.00;;;4.28;;
20073;SDS011;10197;54.282;10.078;2023-04-03T04:52:01;7.38;;;3.97;;
20073;SDS011;10197;54.282;10.078;2023-04-03T04:54:30;4.78;;;3.88;;
20073;SDS011;10197;54.282;10.078;2023-04-03T04:56:59;6.30;;;4.10;;
20073;SDS011;10197;54.282;10.078;2023-04-03T04:59:27;5.68;;;3.97;;
20073;SDS011;10197;54.282;10.078;2023-04-03T05:01:59;5.40;;;3.75;;
20073;SDS011;10197;54.282;10.078;2023-04-03T05:04:26;5.25;;;4.50;;
20073;SDS011;10197;54.282;10.078;2023-04-03T05:07:06;6.00;;;4.25;;
20073;SDS011;10197;54.282;10.078;2023-04-03T05:09:35;6.25;;;4.32;;
20073;SDS011;10197;54.282;10.078;2023-04-03T05:12:04;6.82;;;4.18;;
20073;SDS011;10197;54.282;10.078;2023-04-03T05:14:37;5.75;;;3.97;;
20073;SDS011;10197;54.282;10.078;2023-04-03T05:17:07;6.93;;;4.10;;
20073;SDS011;10197;54.282;10.078;2023-04-03T05:19:37;7.03;;;4.55;;
20073;SDS011;10197;54.282;10.078;2023-04-03T05:22:07;6.60;;;4.15;;
20073;SDS011;10197;54.282;10.078;2023-04-03T05:24:35;6.72;;;4.38;;
20073;SDS011;10197;54.282;10.078;2023-04-03T05:27:04;13.32;;;7.45;;
20073;SDS011;10197;54.282;10.078;2023-04-03T05:29:34;12.63;;;7.30;;
20073;SDS011;10197;54.282;10.078;2023-04-03T05:32:03;7.38;;;5.15;;
20073;SDS011;10197;54.282;10.078;2023-04-03T05:34:30;5.85;;;4.90;;
20073;SDS011;10197;54.282;10.078;2023-04-03T05:36:58;7.40;;;4.32;;
20073;SDS011;10197;54.282;10.078;2023-04-03T05:39:27;7.45;;;4.32;;
20073;SDS011;10197;54.282;10.078;2023-04-03T05:41:54;7.85;;;4.30;;
20073;SDS011;10197;54.282;10.078;2023-04-03T05:44:22;5.32;;;3.83;;
20073;SDS011;10197;54.282;10.078;2023-04-03T05:46:50;5.97;;;3.97;;
20073;SDS011;10197;54.282;10.078;2023-04-03T05:49:19;4.97;;;3.58;;
20073;SDS011;10197;54.282;10.078;2023-04-03T05:51:46;5.22;;;4.05;;
20073;SDS011;10197;54.282;10.078;2023-04-03T05:54:18;6.90;;;3.88;;
20073;SDS011;10197;54.282;10.078;2023-04-03T05:56:48;4.82;;;3.90;;
20073;SDS011;10197;54.282;10.078;2023-04-03T05:59:17;12.38;;;5.80;;
20073;SDS011;10197;54.282;10.078;2023-04-03T06:01:45;12.93;;;6.68;;
20073;SDS011;10197;54.282;10.078;2023-04-03T06:04:13;9.65;;;5.72;;
20073;SDS011;10197;54.282;10.078;2023-04-03T06:06:44;7.85;;;4.65;;
20073;SDS011;10197;54.282;10.078;2023-04-03T06:09:12;6.05;;;4.25;;
20073;SDS011;10197;54.282;10.078;2023-04-03T06:11:39;6.10;;;4.20;;
20073;SDS011;10197;54.282;10.078;2023-04-03T06:14:07;6.15;;;3.92;;
20073;SDS011;10197;54.282;10.078;2023-04-03T06:16:34;6.35;;;4.22;;
20073;SDS011;10197;54.282;10.078;2023-04-03T06:19:02;9.60;;;4.55;;
20073;SDS011;10197;54.282;10.078;2023-04-03T06:21:30;6.47;;;3.58;;
20073;SDS011;10197;54.282;10.078;2023-04-03T06:23:57;9.48;;;5.72;;
20073;SDS011;10197;54.282;10.078;2023-04-03T06:26:24;10.27;;;5.65;;
20073;SDS011;10197;54.282;10.078;2023-04-03T06:28:51;5.97;;;4.22;;
20073;SDS011;10197;54.282;10.078;2023-04-03T06:31:18;6.68;;;4.55;;
20073;SDS011;10197;54.282;10.078;2023-04-03T06:33:45;7.68;;;4.93;;
20073;SDS011;10197;54.282;10.078;2023-04-03T06:36:13;6.90;;;5.07;;
20073;SDS011;10197;54.282;10.078;2023-04-03T06:38:40;5.20;;;4.35;;
20073;SDS011;10197;54.282;10.078;2023-04-03T06:41:07;7.88;;;5.28;;
20073;SDS011;10197;54.282;10.078;2023-04-03T06:43:34;7.25;;;5.30;;
20073;SDS011;10197;54.282;10.078;2023-04-03T06:46:01;7.70;;;4.90;;
20073;SDS011;10197;54.282;10.078;2023-04-03T06:48:28;5.75;;;4.43;;
20073;SDS011;10197;54.282;10.078;2023-04-03T06:50:55;9.65;;;5.22;;
20073;SDS011;10197;54.282;10.078;2023-04-03T06:53:23;5.70;;;4.50;;
20073;SDS011;10197;54.282;10.078;2023-04-03T06:55:50;8.13;;;5.10;;
20073;SDS011;10197;54.282;10.078;2023-04-03T06:58:17;7.55;;;5.00;;
20073;SDS011;10197;54.282;10.078;2023-04-03T07:00:44;7.13;;;4.80;;
20073;SDS011;10197;54.282;10.078;2023-04-03T07:03:12;6.38;;;4.57;;
20073;SDS011;10197;54.282;10.078;2023-04-03T07:05:39;6.47;;;4.63;;
20073;SDS011;10197;54.282;10.078;2023-04-03T07:08:07;6.88;;;4.90;;
20073;SDS011;10197;54.282;10.078;2023-04-03T07:10:36;7.03;;;4.65;;
20073;SDS011;10197;54.282;10.078;2023-04-03T07:13:04;9.98;;;5.40;;
20073;SDS011;10197;54.282;10.078;2023-04-03T07:15:31;7.90;;;4.68;;
20073;SDS011;10197;54.282;10.078;2023-04-03T07:17:58;5.93;;;3.88;;
20073;SDS011;10197;54.282;10.078;2023-04-03T07:20:25;6.53;;;3.80;;
20073;SDS011;10197;54.282;10.078;2023-04-03T07:22:52;4.90;;;2.92;;
20073;SDS011;10197;54.282;10.078;2023-04-03T07:25:19;6.07;;;2.70;;
20073;SDS011;10197;54.282;10.078;2023-04-03T07:27:48;6.90;;;2.60;;
20073;SDS011;10197;54.282;10.078;2023-04-03T07:30:15;6.40;;;2.67;;
20073;SDS011;10197;54.282;10.078;2023-04-03T07:32:43;5.35;;;2.60;;
20073;SDS011;10197;54.282;10.078;2023-04-03T07:35:10;4.93;;;2.47;;
20073;SDS011;10197;54.282;10.078;2023-04-03T07:37:37;3.42;;;2.25;;
20073;SDS011;10197;54.282;10.078;2023-04-03T07:40:04;5.53;;;2.25;;
20073;SDS011;10197;54.282;10.078;2023-04-03T07:42:34;6.00;;;2.78;;
20073;SDS011;10197;54.282;10.078;2023-04-03T07:45:03;4.47;;;2.92;;
20073;SDS011;10197;54.282;10.078;2023-04-03T07:47:30;3.33;;;2.60;;
20073;SDS011;10197;54.282;10.078;2023-04-03T07:49:57;6.57;;;2.95;;
20073;SDS011;10197;54.282;10.078;2023-04-03T07:52:24;4.80;;;2.47;;
20073;SDS011;10197;54.282;10.078;2023-04-03T07:54:51;5.40;;;2.90;;
20073;SDS011;10197;54.282;10.078;2023-04-03T07:57:18;8.80;;;2.95;;
20073;SDS011;10197;54.282;10.078;2023-04-03T07:59:45;5.63;;;2.40;;
20073;SDS011;10197;54.282;10.078;2023-04-03T08:02:14;5.25;;;2.25;;
20073;SDS011;10197;54.282;10.078;2023-04-03T08:04:40;6.07;;;2.53;;
20073;SDS011;10197;54.282;10.078;2023-04-03T08:07:07;6.20;;;2.10;;
20073;SDS011;10197;54.282;10.078;2023-04-03T08:09:34;4.72;;;1.80;;
20073;SDS011;10197;54.282;10.078;2023-04-03T08:12:01;8.85;;;2.35;;
20073;SDS011;10197;54.282;10.078;2023-04-03T08:14:29;5.18;;;2.10;;
20073;SDS011;10197;54.282;10.078;2023-04-03T08:16:57;6.63;;;2.45;;
20073;SDS011;10197;54.282;10.078;2023-04-03T08:19:25;4.85;;;2.00;;
20073;SDS011;10197;54.282;10.078;2023-04-03T08:21:52;2.25;;;1.50;;
20073;SDS011;10197;54.282;10.078;2023-04-03T08:24:20;3.53;;;1.60;;
20073;SDS011;10197;54.282;10.078;2023-04-03T08:26:47;2.55;;;1.55;;
20073;SDS011;10197;54.282;10.078;2023-04-03T08:29:14;3.17;;;1.48;;
20073;SDS011;10197;54.282;10.078;2023-04-03T08:31:42;3.60;;;1.77;;
20073;SDS011;10197;54.282;10.078;2023-04-03T08:34:10;2.22;;;1.63;;
20073;SDS011;10197;54.282;10.078;2023-04-03T08:36:38;3.78;;;1.70;;
20073;SDS011;10197;54.282;10.078;2023-04-03T08:39:05;2.60;;;1.77;;
20073;SDS011;10197;54.282;10.078;2023-04-03T08:41:34;3.85;;;1.77;;
20073;SDS011;10197;54.282;10.078;2023-04-03T08:44:04;2.85;;;1.48;;
20073;SDS011;10197;54.282;10.078;2023-04-03T08:46:42;5.78;;;1.90;;
20073;SDS011;10197;54.282;10.078;2023-04-03T08:49:26;3.05;;;1.50;;
20073;SDS011;10197;54.282;10.078;2023-04-03T08:51:56;3.47;;;1.50;;
20073;SDS011;10197;54.282;10.078;2023-04-03T08:54:26;2.45;;;1.30;;
20073;SDS011;10197;54.282;10.078;2023-04-03T08:56:55;3.22;;;1.42;;
20073;SDS011;10197;54.282;10.078;2023-04-03T08:59:24;3.28;;;1.70;;
20073;SDS011;10197;54.282;10.078;2023-04-03T09:01:53;1.27;;;1.17;;
20073;SDS011;10197;54.282;10.078;2023-04-03T09:04:21;2.80;;;1.30;;
20073;SDS011;10197;54.282;10.078;2023-04-03T09:06:49;4.05;;;1.60;;
20073;SDS011;10197;54.282;10.078;2023-04-03T09:09:24;2.55;;;1.17;;
20073;SDS011;10197;54.282;10.078;2023-04-03T09:12:00;3.22;;;1.73;;
20073;SDS011;10197;54.282;10.078;2023-04-03T09:14:36;2.70;;;1.48;;
20073;SDS011;10197;54.282;10.078;2023-04-03T09:17:09;3.10;;;1.23;;
20073;SDS011;10197;54.282;10.078;2023-04-03T09:19:39;2.10;;;1.35;;
20073;SDS011;10197;54.282;10.078;2023-04-03T09:22:12;3.78;;;1.52;;
20073;SDS011;10197;54.282;10.078;2023-04-03T09:24:41;3.33;;;1.50;;
20073;SDS011;10197;54.282;10.078;2023-04-03T09:27:09;4.63;;;1.55;;
20073;SDS011;10197;54.282;10.078;2023-04-03T09:29:37;3.10;;;1.60;;
20073;SDS011;10197;54.282;10.078;2023-04-03T09:32:12;3.47;;;1.50;;
20073;SDS011;10197;54.282;10.078;2023-04-03T09:34:46;2.72;;;1.50;;
20073;SDS011;10197;54.282;10.078;2023-04-03T09:37:32;4.25;;;1.63;;
20073;SDS011;10197;54.282;10.078;2023-04-03T09:40:04;1.77;;;1.60;;
20073;SDS011;10197;54.282;10.078;2023-04-03T09:42:32;3.92;;;1.50;;
20073;SDS011;10197;54.282;10.078;2023-04-03T09:45:25;4.43;;;2.08;;
20073;SDS011;10197;54.282;10.078;2023-04-03T09:48:04;2.42;;;1.55;;
20073;SDS011;10197;54.282;10.078;2023-04-03T09:50:33;5.68;;;1.83;;
20073;SDS011;10197;54.282;10.078;2023-04-03T09:53:04;2.97;;;1.70;;
20073;SDS011;10197;54.282;10.078;2023-04-03T09:55:34;3.80;;;1.58;;
20073;SDS011;10197;54.282;10.078;2023-04-03T09:58:22;3.10;;;1.40;;
20073;SDS011;10197;54.282;10.078;2023-04-03T10:00:56;3.47;;;1.42;;
20073;SDS011;10197;54.282;10.078;2023-04-03T10:03:25;3.35;;;1.45;;
20073;SDS011;10197;54.282;10.078;2023-04-03T10:05:56;3.03;;;1.75;;
20073;SDS011;10197;54.282;10.078;2023-04-03T10:08:24;2.25;;;1.73;;
20073;SDS011;10197;54.282;10.078;2023-04-03T10:11:09;3.00;;;1.73;;
20073;SDS011;10197;54.282;10.078;2023-04-03T10:16:33;3.58;;;1.38;;
20073;SDS011;10197;54.282;10.078;2023-04-03T10:19:05;2.80;;;1.83;;
20073;SDS011;10197;54.282;10.078;2023-04-03T10:21:43;2.08;;;1.33;;
20073;SDS011;10197;54.282;10.078;2023-04-03T10:24:13;2.58;;;1.40;;
20073;SDS011;10197;54.282;10.078;2023-04-03T10:26:49;3.00;;;1.20;;
20073;SDS011;10197;54.282;10.078;2023-04-03T10:29:26;8.25;;;3.30;;
20073;SDS011;10197;54.282;10.078;2023-04-03T10:31:59;2.60;;;1.40;;
20073;SDS011;10197;54.282;10.078;2023-04-03T10:34:31;2.70;;;1.60;;
20073;SDS011;10197;54.282;10.078;2023-04-03T10:37:01;2.80;;;1.38;;
20073;SDS011;10197;54.282;10.078;2023-04-03T10:39:34;2.10;;;1.30;;
20073;SDS011;10197;54.282;10.078;2023-04-03T10:42:07;3.17;;;1.40;;
20073;SDS011;10197;54.282;10.078;2023-04-03T10:44:36;1.60;;;1.10;;
20073;SDS011;10197;54.282;10.078;2023-04-03T10:47:11;2.33;;;1.20;;
20073;SDS011;10197;54.282;10.078;2023-04-03T10:49:44;3.58;;;1.25;;
20073;SDS011;10197;54.282;10.078;2023-04-03T10:52:20;2.42;;;1.10;;
20073;SDS011;10197;54.282;10.078;2023-04-03T10:54:52;2.90;;;1.30;;
20073;SDS011;10197;54.282;10.078;2023-04-03T10:57:26;2.05;;;1.13;;
20073;SDS011;10197;54.282;10.078;2023-04-03T10:59:55;2.00;;;1.20;;
20073;SDS011;10197;54.282;10.078;2023-04-03T11:02:24;3.83;;;1.50;;
20073;SDS011;10197;54.282;10.078;2023-04-03T11:04:53;2.58;;;1.40;;
20073;SDS011;10197;54.282;10.078;2023-04-03T11:07:24;4.38;;;1.45;;
20073;SDS011;10197;54.282;10.078;2023-04-03T11:09:54;2.15;;;1.35;;
20073;SDS011;10197;54.282;10.078;2023-04-03T11:12:23;2.13;;;1.55;;
20073;SDS011;10197;54.282;10.078;2023-04-03T11:14:54;2.90;;;1.50;;
20073;SDS011;10197;54.282;10.078;2023-04-03T11:17:26;4.40;;;1.40;;
20073;SDS011;10197;54.282;10.078;2023-04-03T11:19:57;1.67;;;1.27;;
20073;SDS011;10197;54.282;10.078;2023-04-03T11:22:27;3.70;;;1.48;;
20073;SDS011;10197;54.282;10.078;2023-04-03T11:24:57;3.05;;;1.40;;
20073;SDS011;10197;54.282;10.078;2023-04-03T11:27:33;5.40;;;1.40;;
20073;SDS011;10197;54.282;10.078;2023-04-03T11:30:05;3.15;;;1.30;;
20073;SDS011;10197;54.282;10.078;2023-04-03T11:32:40;2.58;;;1.65;;
20073;SDS011;10197;54.282;10.078;2023-04-03T11:35:24;4.40;;;1.40;;
20073;SDS011;10197;54.282;10.078;2023-04-03T11:37:52;3.45;;;1.60;;
20073;SDS011;10197;54.282;10.078;2023-04-03T11:40:21;2.63;;;1.30;;
20073;SDS011;10197;54.282;10.078;2023-04-03T11:42:53;2.05;;;1.40;;
20073;SDS011;10197;54.282;10.078;2023-04-03T12:03:35;3.33;;;1.30;;
20073;SDS011;10197;54.282;10.078;2023-04-03T12:12:57;1.20;;;1.10;;
20073;SDS011;10197;54.282;10.078;2023-04-03T12:18:31;3.30;;;1.33;;
20073;SDS011;10197;54.282;10.078;2023-04-03T12:21:17;3.58;;;1.25;;
20073;SDS011;10197;54.282;10.078;2023-04-03T12:23:56;2.63;;;1.30;;
20073;SDS011;10197;54.282;10.078;2023-04-03T12:26:50;2.65;;;1.40;;
20073;SDS011;10197;54.282;10.078;2023-04-03T12:29:27;2.90;;;1.38;;
20073;SDS011;10197;54.282;10.078;2023-04-03T12:32:04;2.75;;;1.10;;
20073;SDS011;10197;54.282;10.078;2023-04-03T12:37:32;1.38;;;1.27;;
20073;SDS011;10197;54.282;10.078;2023-04-03T12:40:08;1.92;;;1.17;;
20073;SDS011;10197;54.282;10.078;2023-04-03T12:42:55;2.53;;;1.50;;
20073;SDS011;10197;54.282;10.078;2023-04-03T12:45:44;2.40;;;1.30;;
20073;SDS011;10197;54.282;10.078;2023-04-03T12:48:15;1.75;;;1.20;;
20073;SDS011;10197;54.282;10.078;2023-04-03T12:50:43;1.65;;;1.35;;
20073;SDS011;10197;54.282;10.078;2023-04-03T12:53:12;1.67;;;1.23;;
20073;SDS011;10197;54.282;10.078;2023-04-03T12:55:40;2.17;;;1.40;;
20073;SDS011;10197;54.282;10.078;2023-04-03T12:58:14;1.30;;;1.20;;
20073;SDS011;10197;54.282;10.078;2023-04-03T13:00:44;1.95;;;1.30;;
20073;SDS011;10197;54.282;10.078;2023-04-03T13:03:21;2.65;;;1.30;;
20073;SDS011;10197;54.282;10.078;2023-04-03T13:05:49;1.77;;;1.40;;
20073;SDS011;10197;54.282;10.078;2023-04-03T13:08:16;3.85;;;1.40;;
20073;SDS011;10197;54.282;10.078;2023-04-03T13:10:47;4.05;;;1.73;;
20073;SDS011;10197;54.282;10.078;2023-04-03T13:13:17;5.45;;;1.48;;
20073;SDS011;10197;54.282;10.078;2023-04-03T13:15:46;2.90;;;1.50;;
20073;SDS011;10197;54.282;10.078;2023-04-03T13:18:25;4.95;;;1.40;;
20073;SDS011;10197;54.282;10.078;2023-04-03T13:20:54;2.97;;;1.40;;
20073;SDS011;10197;54.282;10.078;2023-04-03T13:23:28;2.47;;;1.50;;
20073;SDS011;10197;54.282;10.078;2023-04-03T13:25:56;2.47;;;1.40;;
20073;SDS011;10197;54.282;10.078;2023-04-03T13:28:28;3.25;;;1.35;;
20073;SDS011;10197;54.282;10.078;2023-04-03T13:31:02;2.28;;;1.10;;
20073;SDS011;10197;54.282;10.078;2023-04-03T13:33:32;3.88;;;1.63;;
20073;SDS011;10197;54.282;10.078;2023-04-03T13:36:04;2.63;;;1.38;;
20073;SDS011;10197;54.282;10.078;2023-04-03T13:38:32;2.70;;;1.35;;
20073;SDS011;10197;54.282;10.078;2023-04-03T13:41:02;2.22;;;1.30;;
20073;SDS011;10197;54.282;10.078;2023-04-03T13:43:31;3.08;;;1.30;;
20073;SDS011;10197;54.282;10.078;2023-04-03T13:46:03;4.97;;;1.50;;
20073;SDS011;10197;54.282;10.078;2023-04-03T13:48:36;2.90;;;1.42;;
20073;SDS011;10197;54.282;10.078;2023-04-03T13:51:07;2.95;;;1.33;;
20073;SDS011;10197;54.282;10.078;2023-04-03T13:53:47;4.20;;;1.50;;
20073;SDS011;10197;54.282;10.078;2023-04-03T13:56:17;2.42;;;1.50;;
20073;SDS011;10197;54.282;10.078;2023-04-03T13:58:54;3.33;;;1.50;;
20073;SDS011;10197;54.282;10.078;2023-04-03T14:01:25;2.58;;;1.50;;
20073;SDS011;10197;54.282;10.078;2023-04-03T14:03:54;3.75;;;1.70;;
20073;SDS011;10197;54.282;10.078;2023-04-03T14:06:30;3.58;;;1.60;;
20073;SDS011;10197;54.282;10.078;2023-04-03T14:09:01;3.30;;;1.63;;
20073;SDS011;10197;54.282;10.078;2023-04-03T14:11:29;3.40;;;2.10;;
20073;SDS011;10197;54.282;10.078;2023-04-03T14:13:57;3.35;;;1.55;;
20073;SDS011;10197;54.282;10.078;2023-04-03T14:16:31;1.98;;;1.65;;
20073;SDS011;10197;54.282;10.078;2023-04-03T14:19:00;3.40;;;1.70;;
20073;SDS011;10197;54.282;10.078;2023-04-03T14:21:26;2.67;;;1.40;;
20073;SDS011;10197;54.282;10.078;2023-04-03T14:23:53;3.40;;;1.75;;
20073;SDS011;10197;54.282;10.078;2023-04-03T14:26:23;5.50;;;1.80;;
20073;SDS011;10197;54.282;10.078;2023-04-03T14:28:52;2.65;;;1.20;;
20073;SDS011;10197;54.282;10.078;2023-04-03T14:31:20;4.32;;;1.73;;
20073;SDS011;10197;54.282;10.078;2023-04-03T14:33:50;2.38;;;1.52;;
20073;SDS011;10197;54.282;10.078;2023-04-03T14:36:18;3.17;;;1.90;;
20073;SDS011;10197;54.282;10.078;2023-04-03T14:38:47;4.00;;;2.08;;
20073;SDS011;10197;54.282;10.078;2023-04-03T14:41:16;3.90;;;1.80;;
20073;SDS011;10197;54.282;10.078;2023-04-03T14:43:45;2.47;;;1.58;;
20073;SDS011;10197;54.282;10.078;2023-04-03T14:46:14;3.40;;;1.88;;
20073;SDS011;10197;54.282;10.078;2023-04-03T14:48:43;4.95;;;1.60;;
20073;SDS011;10197;54.282;10.078;2023-04-03T14:53:41;3.22;;;1.40;;
20073;SDS011;10197;54.282;10.078;2023-04-03T14:56:11;2.28;;;1.38;;
20073;SDS011;10197;54.282;10.078;2023-04-03T14:58:39;5.40;;;1.83;;
20073;SDS011;10197;54.282;10.078;2023-04-03T15:01:05;5.68;;;1.70;;
20073;SDS011;10197;54.282;10.078;2023-04-03T15:03:33;5.55;;;1.75;;
20073;SDS011;10197;54.282;10.078;2023-04-03T15:06:00;3.13;;;1.60;;
20073;SDS011;10197;54.282;10.078;2023-04-03T15:08:28;1.80;;;1.30;;
20073;SDS011;10197;54.282;10.078;2023-04-03T15:10:56;3.65;;;1.60;;
20073;SDS011;10197;54.282;10.078;2023-04-03T15:13:23;2.95;;;1.70;;
20073;SDS011;10197;54.282;10.078;2023-04-03T15:15:50;4.65;;;1.80;;
20073;SDS011;10197;54.282;10.078;2023-04-03T15:18:18;3.75;;;1.52;;
20073;SDS011;10197;54.282;10.078;2023-04-03T15:20:47;5.28;;;1.67;;
20073;SDS011;10197;54.282;10.078;2023-04-03T15:23:14;3.65;;;1.60;;
20073;SDS011;10197;54.282;10.078;2023-04-03T15:25:44;2.03;;;1.65;;